Accueil
METAR-TAF:

METAR-TAF

Aéroports :

Prague, République Tchèque

latitude: 50-12-59N, longitude: 014-23-42E, altitude: 280 m

Observation

Le bulletin a été fait il y a 12 heures et 23 minutes, à 12:00 UTC
Vent 3 kt de sud-ouest
Température 6°C
Humidité 81%
Pression 1018 hPa
Visibilité 10 km ou plus
Nuages épars à une hauteur de 1100 ft
Ciel couvert à une hauteur de 1600 ft

METAR: LKVO 051200Z 23003KT 9999 SCT011 OVC016 06/03 Q1018

Heure: 01:23 (00:23 UTC)


TAF: absent

Observations et prévisions météorologiques de plus de 4000 aéroports (messages METAR et TAF).

Les stations disponibles sont représentées par des disques jaunes et rouges sur la carte.

Passer la souris dessus pour voir le nom de la station.

Cliquer dessus pour voir les observations et prévisions météorologiques.

Pour changer de carte: cliquez sur les boutons verts avec une croix noire pour zoomer, sur le bouton vert avec un tiret pour effectuer un zoom arrière, ou sur les flèches vertes pour les cartes adjacentes.


METAR-TAF: